Time;durP1;ratioP1;P1;durP2;ratioP2;P2;SDS_P1;SDS_P2;PMS_P1;PMS_P2;Temp;Humidity;BMP_temperature;BMP_pressure;BME280_temperature;BME280_humidity;BME280_pressure;Samples;Min_cycle;Max_cycle;Signal;HPM_P1;HPM_P2
2021/05/20 00:00:19;;;;;;;5.88;1.33;;;10.40;99.90;;;;;;5036858;28;20471;-74
2021/05/20 00:02:46;;;;;;;1.90;1.10;;;10.50;99.90;;;;;;5036804;28;20068;-75
2021/05/20 00:05:15;;;;;;;1.52;0.63;;;10.50;99.90;;;;;;5055797;28;20029;-77
2021/05/20 00:07:42;;;;;;;2.55;0.80;;;10.50;99.90;;;;;;5062436;28;20044;-74
2021/05/20 00:10:10;;;;;;;2.53;0.70;;;10.40;99.90;;;;;;5054833;28;20037;-73
2021/05/20 00:12:36;;;;;;;3.60;1.15;;;10.40;99.90;;;;;;5046322;28;20048;-75
2021/05/20 00:15:07;;;;;;;2.75;1.02;;;10.50;99.90;;;;;;5040500;28;20363;-74
2021/05/20 00:17:33;;;;;;;1.58;0.85;;;10.50;99.90;;;;;;5054063;28;20051;-75
2021/05/20 00:20:00;;;;;;;3.40;1.42;;;10.50;99.90;;;;;;5054290;28;20037;-76
2021/05/20 00:22:29;;;;;;;2.35;1.27;;;10.50;99.90;;;;;;5061704;28;20044;-75
2021/05/20 00:24:56;;;;;;;5.20;1.75;;;10.50;99.90;;;;;;5067505;28;20457;-75
2021/05/20 00:27:22;;;;;;;2.67;1.33;;;10.60;99.90;;;;;;5054103;28;20033;-75
2021/05/20 00:29:49;;;;;;;3.88;1.42;;;10.60;99.90;;;;;;5072128;28;20035;-75
2021/05/20 00:32:17;;;;;;;6.38;2.42;;;10.70;99.90;;;;;;5053811;28;20176;-74
2021/05/20 00:34:43;;;;;;;4.28;1.70;;;10.80;99.90;;;;;;5053830;28;20037;-74
2021/05/20 00:37:09;;;;;;;4.60;2.05;;;10.70;99.90;;;;;;5054069;28;20033;-76
2021/05/20 00:39:36;;;;;;;3.28;1.70;;;10.70;99.90;;;;;;5034732;28;20064;-74
2021/05/20 00:42:09;;;;;;;5.55;2.05;;;10.80;99.90;;;;;;5053797;28;20041;-74
2021/05/20 00:44:59;;;;;;;4.65;2.15;;;10.70;99.90;;;;;;5064668;28;20036;-74
2021/05/20 00:47:29;;;;;;;3.60;2.00;;;10.80;99.90;;;;;;5053916;28;20390;-74
2021/05/20 00:49:56;;;;;;;3.72;1.40;;;10.80;99.90;;;;;;5054257;28;20041;-75
2021/05/20 00:52:23;;;;;;;4.80;1.00;;;10.80;99.90;;;;;;5053334;28;20029;-74
2021/05/20 00:54:55;;;;;;;4.30;1.20;;;10.70;99.90;;;;;;5071845;28;20033;-74
2021/05/20 00:57:22;;;;;;;2.67;1.13;;;10.50;99.90;;;;;;5057723;28;20029;-74
2021/05/20 00:59:49;;;;;;;4.45;1.23;;;10.40;99.90;;;;;;5068074;28;20036;-73
2021/05/20 01:02:15;;;;;;;4.50;1.23;;;10.30;99.90;;;;;;5052580;28;20029;-73
2021/05/20 01:04:42;;;;;;;3.25;1.10;;;10.30;99.90;;;;;;5062543;28;20024;-73
2021/05/20 01:07:08;;;;;;;2.85;0.90;;;10.20;99.90;;;;;;5057041;28;20386;-73
2021/05/20 01:09:35;;;;;;;1.77;0.85;;;10.10;99.90;;;;;;5052983;28;20021;-72
2021/05/20 01:12:03;;;;;;;1.95;1.00;;;10.00;99.90;;;;;;5053312;28;20025;-74
2021/05/20 01:14:43;;;;;;;3.15;1.40;;;10.00;99.90;;;;;;5053106;28;20463;-74
2021/05/20 01:17:11;;;;;;;2.25;0.75;;;9.90;99.90;;;;;;5053760;28;20038;-74
2021/05/20 01:19:39;;;;;;;1.85;0.88;;;9.90;99.90;;;;;;5051615;28;20049;-74
2021/05/20 01:22:05;;;;;;;2.10;1.33;;;9.90;99.90;;;;;;5052428;28;20045;-72
2021/05/20 01:24:32;;;;;;;4.55;1.65;;;9.80;99.90;;;;;;5052116;28;20033;-74
2021/05/20 01:27:01;;;;;;;4.70;1.60;;;9.80;99.90;;;;;;5065471;28;20025;-75
2021/05/20 01:29:27;;;;;;;4.57;2.20;;;9.80;99.90;;;;;;5056284;28;20434;-73
2021/05/20 01:31:54;;;;;;;3.00;1.17;;;9.70;99.90;;;;;;5052232;28;20052;-73
2021/05/20 01:34:20;;;;;;;2.63;1.38;;;9.70;99.90;;;;;;5051919;28;20041;-73
2021/05/20 01:36:46;;;;;;;3.97;1.73;;;9.70;99.90;;;;;;5052348;28;20037;-73
2021/05/20 01:39:12;;;;;;;2.88;1.50;;;9.70;99.90;;;;;;5058051;28;20028;-75
2021/05/20 01:41:38;;;;;;;3.80;1.58;;;9.70;99.90;;;;;;5044618;28;20398;-73
2021/05/20 01:44:05;;;;;;;5.53;1.70;;;9.80;99.90;;;;;;5053199;28;20040;-74
2021/05/20 01:46:31;;;;;;;3.40;1.42;;;9.80;99.90;;;;;;5059253;28;20048;-73
2021/05/20 01:48:57;;;;;;;2.95;1.60;;;9.80;99.90;;;;;;5049874;28;20045;-73
2021/05/20 01:51:24;;;;;;;3.90;1.58;;;9.80;99.90;;;;;;5051957;28;20371;-74
2021/05/20 01:53:56;;;;;;;3.53;1.92;;;9.70;99.90;;;;;;5051723;28;20056;-73
2021/05/20 01:56:27;;;;;;;4.25;1.45;;;9.70;99.90;;;;;;5051922;28;20394;-73
2021/05/20 01:58:54;;;;;;;2.30;1.77;;;9.60;99.90;;;;;;5034375;28;20044;-73
2021/05/20 02:01:23;;;;;;;4.05;1.67;;;9.70;99.90;;;;;;5052431;28;20040;-73
2021/05/20 02:03:49;;;;;;;4.10;1.50;;;9.70;99.90;;;;;;5058595;28;20028;-74
2021/05/20 02:06:16;;;;;;;3.45;1.30;;;9.70;99.90;;;;;;5053649;28;20025;-75
2021/05/20 02:08:42;;;;;;;3.30;1.60;;;9.70;99.90;;;;;;5055713;28;20036;-74
2021/05/20 02:11:08;;;;;;;2.85;1.52;;;9.70;99.90;;;;;;5068069;28;20351;-75
2021/05/20 02:13:35;;;;;;;5.35;1.92;;;9.70;99.90;;;;;;5051757;28;20033;-74
2021/05/20 02:16:02;;;;;;;3.47;1.90;;;9.70;99.90;;;;;;5033925;28;20047;-74
2021/05/20 02:18:28;;;;;;;3.67;2.03;;;9.80;99.90;;;;;;5050771;28;20041;-74
2021/05/20 02:20:54;;;;;;;5.15;2.00;;;9.80;99.90;;;;;;5056374;28;20469;-74
2021/05/20 02:23:20;;;;;;;6.85;3.03;;;9.80;99.90;;;;;;5070654;28;20037;-74
2021/05/20 02:25:46;;;;;;;7.72;2.03;;;9.80;99.90;;;;;;5053100;28;20037;-74
2021/05/20 02:28:13;;;;;;;4.10;2.05;;;9.80;99.90;;;;;;5051362;28;20045;-76
2021/05/20 02:30:39;;;;;;;3.53;2.30;;;9.80;99.90;;;;;;5057836;28;20055;-73
2021/05/20 02:33:05;;;;;;;3.80;1.98;;;9.80;99.90;;;;;;5060334;28;20094;-74
2021/05/20 02:35:32;;;;;;;2.97;2.08;;;9.70;99.90;;;;;;5051633;28;20098;-74
2021/05/20 02:37:59;;;;;;;4.13;1.83;;;9.70;99.90;;;;;;5052130;28;20029;-74
2021/05/20 02:40:25;;;;;;;4.65;2.42;;;9.60;99.90;;;;;;5051245;28;20037;-74
2021/05/20 02:42:51;;;;;;;3.35;2.17;;;9.60;99.90;;;;;;5051827;28;20402;-74
2021/05/20 02:45:21;;;;;;;5.05;2.08;;;9.60;99.90;;;;;;5070371;28;20025;-74
2021/05/20 02:47:49;;;;;;;3.85;2.20;;;9.60;99.90;;;;;;5052445;28;20037;-73
2021/05/20 02:50:16;;;;;;;4.28;2.35;;;9.60;99.90;;;;;;5051475;28;20036;-76
2021/05/20 02:52:44;;;;;;;5.07;2.05;;;9.50;99.90;;;;;;5052037;28;20037;-74
2021/05/20 02:55:15;;;;;;;3.78;2.10;;;9.50;99.90;;;;;;5052082;28;20029;-73
2021/05/20 02:57:43;;;;;;;5.45;2.45;;;9.50;99.90;;;;;;5052151;28;20363;-73
2021/05/20 03:00:11;;;;;;;3.97;2.80;;;9.50;99.90;;;;;;5060714;28;20485;-73
2021/05/20 03:02:37;;;;;;;4.78;3.03;;;9.50;99.90;;;;;;5063871;28;20029;-74
2021/05/20 03:05:08;;;;;;;10.98;3.42;;;9.50;99.90;;;;;;5051270;28;20052;-74
2021/05/20 03:07:35;;;;;;;7.10;3.55;;;9.50;99.90;;;;;;5051258;28;20036;-73
2021/05/20 03:10:04;;;;;;;5.35;2.63;;;9.50;99.90;;;;;;5063715;28;20040;-73
2021/05/20 03:12:30;;;;;;;4.40;2.67;;;9.50;99.90;;;;;;5058596;28;20578;-73
2021/05/20 03:14:57;;;;;;;3.05;2.00;;;9.50;99.90;;;;;;5051426;28;20029;-73
2021/05/20 03:17:23;;;;;;;3.38;2.03;;;9.50;99.90;;;;;;5053998;28;20029;-74
2021/05/20 03:19:49;;;;;;;4.68;1.83;;;9.50;99.90;;;;;;5046527;28;20036;-73
2021/05/20 03:22:16;;;;;;;4.80;2.15;;;9.60;99.90;;;;;;5050803;28;20036;-76
2021/05/20 03:24:42;;;;;;;3.70;1.65;;;9.50;99.90;;;;;;5059976;28;20033;-73
2021/05/20 03:27:09;;;;;;;4.70;1.80;;;9.40;99.90;;;;;;5060865;28;20164;-73
2021/05/20 03:29:35;;;;;;;4.97;1.98;;;9.40;99.90;;;;;;5055006;28;20226;-74
2021/05/20 03:32:01;;;;;;;2.33;1.55;;;9.40;99.90;;;;;;5064769;28;20390;-74
2021/05/20 03:34:28;;;;;;;2.97;1.80;;;9.40;99.90;;;;;;5054955;28;20025;-73
2021/05/20 03:36:54;;;;;;;1.90;1.35;;;9.40;99.90;;;;;;5055037;28;20037;-73
2021/05/20 03:39:20;;;;;;;5.43;1.48;;;9.40;99.90;;;;;;5054384;28;20036;-72
2021/05/20 03:41:46;;;;;;;2.42;1.70;;;9.30;99.90;;;;;;5054668;28;20048;-73
2021/05/20 03:44:12;;;;;;;4.63;1.92;;;9.30;99.90;;;;;;5036991;28;20115;-73
2021/05/20 03:46:39;;;;;;;2.70;1.63;;;9.30;99.90;;;;;;5054812;28;20037;-73
2021/05/20 03:49:05;;;;;;;3.00;1.60;;;9.30;99.90;;;;;;5053623;28;20493;-73
2021/05/20 03:51:31;;;;;;;2.75;1.67;;;9.30;99.90;;;;;;5059608;28;20048;-73
2021/05/20 03:53:57;;;;;;;3.80;2.00;;;9.30;99.90;;;;;;5055250;28;20036;-73
2021/05/20 03:56:24;;;;;;;3.58;2.15;;;9.40;99.90;;;;;;5053813;28;20052;-73
2021/05/20 03:58:50;;;;;;;3.15;2.33;;;9.40;99.90;;;;;;5055124;28;20025;-73
2021/05/20 04:01:16;;;;;;;3.85;2.70;;;9.40;99.90;;;;;;5036186;28;20726;-76
2021/05/20 04:03:42;;;;;;;3.80;2.70;;;9.40;99.90;;;;;;5055261;28;20029;-73
2021/05/20 04:06:09;;;;;;;3.92;3.08;;;9.50;99.90;;;;;;5055082;28;20374;-72
2021/05/20 04:08:36;;;;;;;6.22;4.57;;;9.50;99.90;;;;;;5054690;28;20557;-73
2021/05/20 04:11:03;;;;;;;6.25;4.72;;;9.50;99.90;;;;;;5055000;28;20462;-73
2021/05/20 04:13:41;;;;;;;6.25;5.18;;;9.50;99.90;;;;;;5054896;28;20052;-73
2021/05/20 04:16:09;;;;;;;7.63;5.95;;;9.50;99.90;;;;;;5069874;28;20056;-73
2021/05/20 04:18:35;;;;;;;8.77;6.35;;;9.60;99.90;;;;;;5058065;28;20592;-74
2021/05/20 04:21:02;;;;;;;9.50;5.97;;;9.60;99.90;;;;;;5067606;28;20509;-73
2021/05/20 04:23:28;;;;;;;7.60;5.68;;;9.60;99.90;;;;;;5064404;28;20041;-73
2021/05/20 04:25:55;;;;;;;7.50;5.85;;;9.60;99.90;;;;;;5054588;28;20033;-73
2021/05/20 04:28:21;;;;;;;8.00;6.50;;;9.70;99.90;;;;;;5061701;28;20044;-73
2021/05/20 04:30:48;;;;;;;8.27;6.85;;;9.70;99.90;;;;;;5065391;28;20048;-72
2021/05/20 04:33:15;;;;;;;8.77;7.07;;;9.80;99.90;;;;;;5054627;28;20044;-76
2021/05/20 04:35:42;;;;;;;10.43;8.68;;;9.70;99.90;;;;;;5054134;28;20044;-73
2021/05/20 04:38:10;;;;;;;10.00;6.88;;;9.80;99.90;;;;;;5062673;28;20040;-74
2021/05/20 04:40:38;;;;;;;11.43;7.88;;;9.80;99.90;;;;;;5035223;28;20347;-73
2021/05/20 04:43:05;;;;;;;11.52;7.88;;;9.90;99.90;;;;;;5036390;28;20029;-74
2021/05/20 04:45:33;;;;;;;11.15;8.27;;;10.00;99.90;;;;;;5053806;28;20371;-72
2021/05/20 04:48:00;;;;;;;12.23;9.57;;;10.10;99.90;;;;;;5054132;28;20028;-72
2021/05/20 04:50:27;;;;;;;13.13;9.32;;;10.10;99.90;;;;;;5053485;28;20025;-72
2021/05/20 04:52:53;;;;;;;14.43;9.15;;;10.20;99.90;;;;;;5053600;28;20035;-74
2021/05/20 04:55:19;;;;;;;10.88;8.52;;;10.20;99.90;;;;;;5052849;28;20469;-74
2021/05/20 04:57:45;;;;;;;9.73;7.90;;;10.20;99.90;;;;;;5053950;28;20386;-74
2021/05/20 05:00:13;;;;;;;9.00;6.60;;;10.30;99.90;;;;;;5036068;28;20033;-73
2021/05/20 05:02:39;;;;;;;9.38;6.72;;;10.40;99.90;;;;;;5053039;28;20048;-76
2021/05/20 05:05:07;;;;;;;10.02;6.45;;;10.40;99.90;;;;;;5046875;28;20048;-73
2021/05/20 05:07:34;;;;;;;8.10;5.85;;;10.40;99.90;;;;;;5065858;28;20032;-73
2021/05/20 05:10:03;;;;;;;8.07;6.38;;;10.50;99.90;;;;;;5066557;28;20040;-74
2021/05/20 05:12:31;;;;;;;7.32;5.85;;;10.50;99.90;;;;;;5053624;28;20051;-74
2021/05/20 05:15:00;;;;;;;10.80;5.40;;;10.50;99.90;;;;;;5053624;28;20406;-73
2021/05/20 05:17:34;;;;;;;7.65;5.68;;;10.40;99.90;;;;;;5052855;28;20033;-74
2021/05/20 05:20:02;;;;;;;8.68;4.88;;;10.40;99.90;;;;;;5053504;28;20039;-76
2021/05/20 05:22:30;;;;;;;9.80;6.32;;;10.40;99.90;;;;;;5052717;28;20036;-74
2021/05/20 05:24:59;;;;;;;7.15;5.38;;;10.40;99.90;;;;;;5052218;28;20400;-73
2021/05/20 05:27:29;;;;;;;9.48;6.05;;;10.50;99.90;;;;;;5048655;28;20053;-74
2021/05/20 05:29:56;;;;;;;6.97;5.35;;;10.50;99.90;;;;;;5071084;28;20461;-74
2021/05/20 05:32:27;;;;;;;9.38;5.75;;;10.60;99.90;;;;;;5052627;28;20049;-74
2021/05/20 05:34:57;;;;;;;9.10;6.18;;;10.60;99.90;;;;;;5053490;28;20036;-73
2021/05/20 05:37:24;;;;;;;7.00;5.93;;;10.70;99.90;;;;;;5052877;28;20043;-73
2021/05/20 05:39:52;;;;;;;11.30;5.70;;;10.80;99.90;;;;;;5053696;28;20032;-73
2021/05/20 05:42:19;;;;;;;9.32;5.88;;;10.80;99.90;;;;;;5070440;28;20063;-76
2021/05/20 05:44:49;;;;;;;7.05;4.95;;;10.90;99.90;;;;;;5055037;28;20037;-73
2021/05/20 05:47:18;;;;;;;15.07;5.68;;;11.00;99.90;;;;;;5052600;28;20033;-77
2021/05/20 05:49:49;;;;;;;8.23;5.72;;;11.10;99.90;;;;;;5062890;28;20039;-76
2021/05/20 05:52:22;;;;;;;8.48;6.82;;;11.20;99.90;;;;;;5065441;28;20032;-74
2021/05/20 05:54:52;;;;;;;9.80;6.03;;;11.30;99.90;;;;;;5033966;28;20040;-74
2021/05/20 05:57:19;;;;;;;9.02;5.95;;;11.40;99.90;;;;;;5052098;28;20039;-77
2021/05/20 05:59:49;;;;;;;8.77;5.75;;;11.40;99.90;;;;;;5035004;28;20040;-74
2021/05/20 06:02:23;;;;;;;7.18;4.43;;;11.40;99.90;;;;;;5052588;28;20036;-73
2021/05/20 06:04:58;;;;;;;6.40;4.10;;;11.50;99.90;;;;;;5053981;28;20052;-73
2021/05/20 06:07:35;;;;;;;5.05;3.63;;;11.50;99.90;;;;;;5060640;28;20028;-74
2021/05/20 06:10:04;;;;;;;6.68;3.95;;;11.60;99.90;;;;;;5052820;28;20029;-74
2021/05/20 06:12:32;;;;;;;9.63;4.88;;;11.70;99.90;;;;;;5051052;28;20387;-73
2021/05/20 06:15:03;;;;;;;7.75;5.57;;;11.80;99.90;;;;;;5052385;28;20040;-74
2021/05/20 06:17:33;;;;;;;9.77;5.63;;;11.70;99.90;;;;;;5064387;28;20032;-72
2021/05/20 06:20:01;;;;;;;10.50;5.47;;;11.60;99.90;;;;;;5052254;28;20029;-75
2021/05/20 06:22:29;;;;;;;9.93;5.85;;;11.50;99.90;;;;;;5045714;28;20044;-72
2021/05/20 06:24:57;;;;;;;6.78;5.72;;;11.50;99.90;;;;;;5051000;28;20040;-74
2021/05/20 06:27:27;;;;;;;7.03;5.00;;;11.40;99.90;;;;;;5052750;28;20029;-74
2021/05/20 06:29:58;;;;;;;7.75;5.70;;;11.40;99.90;;;;;;5052227;28;20390;-74
2021/05/20 06:32:28;;;;;;;7.07;5.07;;;11.40;99.90;;;;;;5051746;28;20049;-74
2021/05/20 06:34:56;;;;;;;8.15;5.88;;;11.30;99.90;;;;;;5051871;28;20041;-74
2021/05/20 06:37:25;;;;;;;8.45;5.72;;;11.30;99.90;;;;;;5051405;28;20496;-73
2021/05/20 06:39:54;;;;;;;7.82;5.82;;;11.20;99.90;;;;;;5053193;28;20041;-74
2021/05/20 06:42:22;;;;;;;6.03;5.15;;;11.30;99.90;;;;;;5051826;28;20052;-73
2021/05/20 06:44:50;;;;;;;9.27;5.00;;;11.40;99.90;;;;;;5063989;28;20041;-73
2021/05/20 06:47:16;;;;;;;5.38;4.03;;;11.40;99.90;;;;;;5048669;28;20035;-74
2021/05/20 06:49:43;;;;;;;4.90;3.33;;;11.30;99.90;;;;;;5051748;28;20374;-73
2021/05/20 06:52:11;;;;;;;5.13;3.22;;;11.30;99.90;;;;;;5051751;28;20040;-74
2021/05/20 06:54:41;;;;;;;5.75;3.22;;;11.30;99.90;;;;;;5050523;28;20041;-73
2021/05/20 06:57:24;;;;;;;4.03;2.60;;;11.20;99.90;;;;;;5052260;28;20029;-73
2021/05/20 07:00:00;;;;;;;7.25;3.00;;;11.30;99.90;;;;;;5051544;28;20036;-73
2021/05/20 07:02:29;;;;;;;7.82;3.83;;;11.40;99.90;;;;;;5056150;28;20400;-73
2021/05/20 07:05:01;;;;;;;7.13;3.85;;;11.50;99.90;;;;;;5074831;28;20036;-73
2021/05/20 07:07:31;;;;;;;5.95;3.28;;;11.70;99.90;;;;;;5061589;28;20036;-73
2021/05/20 07:10:00;;;;;;;4.00;3.20;;;12.00;99.90;;;;;;5069014;28;20036;-73
2021/05/20 07:12:29;;;;;;;5.13;3.55;;;12.50;99.90;;;;;;5068844;28;20029;-73
2021/05/20 07:14:58;;;;;;;4.03;2.42;;;14.00;99.90;;;;;;5056514;28;20053;-74
2021/05/20 07:17:28;;;;;;;7.25;2.45;;;15.80;91.60;;;;;;5054119;28;20052;-74
2021/05/20 07:19:57;;;;;;;2.80;2.15;;;15.40;91.70;;;;;;5055724;28;20036;-73
2021/05/20 07:22:25;;;;;;;2.75;1.70;;;15.70;88.60;;;;;;5055135;28;20048;-74
2021/05/20 07:24:54;;;;;;;3.50;1.42;;;16.20;87.40;;;;;;5055228;28;20029;-73
2021/05/20 07:27:24;;;;;;;6.65;1.83;;;14.40;90.00;;;;;;5053490;28;20339;-74
2021/05/20 07:29:54;;;;;;;1.85;1.40;;;13.10;92.90;;;;;;5064968;28;20382;-73
2021/05/20 07:32:20;;;;;;;3.97;2.03;;;12.70;95.70;;;;;;5054594;28;20052;-74
2021/05/20 07:34:49;;;;;;;3.47;1.60;;;12.40;96.50;;;;;;5055227;28;20029;-73
2021/05/20 07:37:17;;;;;;;2.65;1.48;;;12.60;98.40;;;;;;5066889;28;20473;-73
2021/05/20 07:39:44;;;;;;;2.58;1.50;;;12.80;95.50;;;;;;5061870;28;20466;-72
2021/05/20 07:42:12;;;;;;;2.88;2.00;;;12.80;93.20;;;;;;5063180;28;20059;-73
2021/05/20 07:44:41;;;;;;;3.13;2.00;;;12.80;93.60;;;;;;5067618;28;20036;-74
2021/05/20 07:47:08;;;;;;;3.35;1.83;;;13.30;94.60;;;;;;5055374;28;20370;-75
2021/05/20 07:49:37;;;;;;;4.82;2.47;;;13.90;94.30;;;;;;5068996;28;20092;-75
2021/05/20 07:52:05;;;;;;;3.78;2.17;;;13.90;91.20;;;;;;5063937;28;20052;-75
2021/05/20 07:54:33;;;;;;;2.50;2.15;;;14.80;90.60;;;;;;5073289;28;20029;-74
2021/05/20 07:57:01;;;;;;;5.25;2.15;;;14.70;85.50;;;;;;5056069;28;20025;-75
2021/05/20 07:59:27;;;;;;;3.90;2.38;;;14.20;88.70;;;;;;5054534;28;20033;-75
2021/05/20 08:02:22;;;;;;;4.07;1.90;;;13.50;89.30;;;;;;5055175;28;20033;-72
2021/05/20 08:04:41;;;;;;;5.72;2.70;;;13.10;91.60;;;;;;5053671;28;20041;-76
2021/05/20 08:12:44;;;;;;;3.40;2.95;;;12.70;93.00;;;;;;5053099;28;20374;-76
2021/05/20 08:15:11;;;;;;;4.30;3.22;;;12.50;93.60;;;;;;5054740;28;20036;-76
2021/05/20 08:17:37;;;;;;;4.55;4.00;;;13.00;94.90;;;;;;5035173;28;20040;-75
2021/05/20 08:20:06;;;;;;;5.25;3.97;;;13.50;92.90;;;;;;5054491;28;20048;-76
2021/05/20 08:22:35;;;;;;;6.03;3.85;;;13.50;92.00;;;;;;5070834;28;20037;-74
2021/05/20 08:25:02;;;;;;;5.22;3.65;;;14.00;90.50;;;;;;5065247;28;20037;-76
2021/05/20 08:27:30;;;;;;;4.93;3.45;;;14.90;88.90;;;;;;5054336;28;20040;-76
2021/05/20 08:29:57;;;;;;;3.67;2.78;;;14.50;84.10;;;;;;5054616;28;20493;-76
2021/05/20 08:32:24;;;;;;;6.53;3.10;;;14.90;83.30;;;;;;5058136;28;20049;-76
2021/05/20 08:34:50;;;;;;;4.13;3.28;;;14.70;83.70;;;;;;5059984;28;20044;-76
2021/05/20 08:37:17;;;;;;;6.95;3.95;;;14.40;87.80;;;;;;5054050;28;20037;-75
2021/05/20 08:39:43;;;;;;;6.95;4.60;;;16.10;84.90;;;;;;5054000;28;20033;-76
2021/05/20 08:42:09;;;;;;;3.92;3.45;;;17.20;75.10;;;;;;5054290;28;20041;-76
2021/05/20 08:44:36;;;;;;;7.60;3.60;;;18.20;70.30;;;;;;5053590;28;20044;-76
2021/05/20 08:47:02;;;;;;;4.70;3.42;;;18.20;69.40;;;;;;5036082;28;20497;-76
2021/05/20 08:49:30;;;;;;;4.60;4.20;;;18.60;66.20;;;;;;5056304;28;20029;-76
2021/05/20 08:51:59;;;;;;;5.18;4.53;;;17.80;66.40;;;;;;5053099;28;20056;-77
2021/05/20 08:54:26;;;;;;;5.00;4.50;;;16.30;71.00;;;;;;5063406;28;20024;-76
2021/05/20 08:56:57;;;;;;;6.30;4.35;;;15.90;74.90;;;;;;5071874;28;20037;-76
2021/05/20 08:59:28;;;;;;;4.70;4.30;;;15.70;74.20;;;;;;5057394;28;20044;-75
2021/05/20 09:01:58;;;;;;;5.93;5.13;;;15.40;75.00;;;;;;5052495;28;20045;-76
2021/05/20 09:04:26;;;;;;;5.78;4.50;;;15.60;74.70;;;;;;5065824;28;20033;-76
2021/05/20 09:06:58;;;;;;;5.40;4.90;;;15.50;74.20;;;;;;5061472;28;20459;-72
2021/05/20 09:09:35;;;;;;;4.95;3.92;;;14.70;76.30;;;;;;5071654;28;20390;-77
2021/05/20 09:12:03;;;;;;;6.40;5.10;;;14.70;79.70;;;;;;5060315;28;20520;-75
2021/05/20 09:14:41;;;;;;;7.20;4.55;;;15.10;76.80;;;;;;5047862;28;20041;-76
2021/05/20 09:17:19;;;;;;;5.95;3.92;;;16.10;73.80;;;;;;5035078;28;20370;-76
2021/05/20 09:19:59;;;;;;;17.17;5.22;;;14.90;73.40;;;;;;5052007;28;20501;-75
2021/05/20 09:22:29;;;;;;;6.65;4.60;;;14.40;77.80;;;;;;5034996;28;20494;-76
2021/05/20 09:24:57;;;;;;;7.47;4.50;;;14.70;77.70;;;;;;5054267;28;20028;-76
2021/05/20 09:27:41;;;;;;;5.10;3.78;;;15.00;78.60;;;;;;5038760;28;20481;-77
2021/05/20 09:30:25;;;;;;;4.85;3.30;;;15.30;75.10;;;;;;5045501;28;20037;-79
2021/05/20 09:32:57;;;;;;;5.30;3.78;;;15.60;76.20;;;;;;5065097;28;20045;-74
2021/05/20 09:35:31;;;;;;;4.10;2.70;;;15.30;70.30;;;;;;5034478;28;20045;-77
2021/05/20 09:38:22;;;;;;;6.10;3.30;;;15.50;73.80;;;;;;5053671;28;20033;-75
2021/05/20 09:40:55;;;;;;;4.68;3.47;;;16.00;72.70;;;;;;5053178;28;20040;-77
2021/05/20 09:43:35;;;;;;;5.03;2.70;;;16.20;69.70;;;;;;5063135;28;20040;-75
2021/05/20 09:46:05;;;;;;;6.97;2.92;;;16.90;69.50;;;;;;5062366;28;20032;-76
2021/05/20 09:48:35;;;;;;;4.38;3.00;;;16.20;69.00;;;;;;5034306;28;20048;-76
2021/05/20 09:51:05;;;;;;;3.35;2.60;;;17.00;70.20;;;;;;5052512;28;20028;-77
2021/05/20 09:53:46;;;;;;;4.80;2.90;;;18.00;63.60;;;;;;5064109;28;20469;-77
2021/05/20 09:56:15;;;;;;;5.80;3.00;;;16.70;65.80;;;;;;5051209;28;20041;-75
2021/05/20 09:58:54;;;;;;;5.18;3.65;;;16.60;68.30;;;;;;5052292;28;20037;-77
2021/05/20 10:01:24;;;;;;;5.47;3.30;;;16.20;68.70;;;;;;5052830;28;20454;-76
2021/05/20 10:03:55;;;;;;;5.30;3.20;;;16.60;67.70;;;;;;5051999;28;20482;-77
2021/05/20 10:06:36;;;;;;;3.55;2.55;;;16.60;67.00;;;;;;5061345;28;20036;-76
2021/05/20 10:09:10;;;;;;;3.53;2.80;;;17.10;65.20;;;;;;5061508;28;20475;-76
2021/05/20 10:11:44;;;;;;;3.83;2.65;;;17.90;62.90;;;;;;5052325;28;20048;-76
2021/05/20 10:14:14;;;;;;;2.97;1.80;;;17.20;64.20;;;;;;5052001;28;20041;-76
2021/05/20 10:16:42;;;;;;;3.25;2.33;;;16.70;65.40;;;;;;5051982;28;20037;-77
2021/05/20 10:19:12;;;;;;;4.43;1.98;;;16.70;64.20;;;;;;5051516;28;20037;-76
2021/05/20 10:21:39;;;;;;;2.90;2.15;;;15.90;67.00;;;;;;5051860;28;20036;-73
2021/05/20 10:24:09;;;;;;;3.38;2.50;;;15.80;69.20;;;;;;5051158;28;20052;-76
2021/05/20 10:26:39;;;;;;;5.32;2.47;;;16.20;68.30;;;;;;5051221;28;20041;-75
2021/05/20 10:29:07;;;;;;;4.30;2.38;;;16.40;66.30;;;;;;5051770;28;20387;-74
2021/05/20 10:31:36;;;;;;;3.00;2.10;;;16.10;67.60;;;;;;5051858;28;20048;-73
2021/05/20 10:34:05;;;;;;;4.38;2.20;;;16.80;67.60;;;;;;5051439;28;20049;-72
2021/05/20 10:36:34;;;;;;;3.35;2.00;;;17.30;63.60;;;;;;5050076;28;20043;-71
2021/05/20 10:39:21;;;;;;;5.07;2.13;;;17.30;62.40;;;;;;5070562;28;20045;-72
2021/05/20 10:41:50;;;;;;;6.32;2.40;;;17.60;63.20;;;;;;5052024;28;20025;-75
2021/05/20 10:44:20;;;;;;;3.13;2.35;;;17.80;62.60;;;;;;5053998;28;20043;-75
2021/05/20 10:46:57;;;;;;;2.47;1.53;;;18.10;63.30;;;;;;5070839;28;20378;-76
2021/05/20 10:50:01;;;;;;;2.30;1.45;;;17.80;60.70;;;;;;5034096;28;20033;-75
2021/05/20 10:52:38;;;;;;;4.50;1.38;;;17.80;58.70;;;;;;4989748;28;20046;-76
2021/05/20 10:55:16;;;;;;;3.40;1.27;;;17.90;59.90;;;;;;5045093;28;20043;-74
2021/05/20 10:58:01;;;;;;;4.82;1.98;;;18.20;60.30;;;;;;5050617;28;20065;-75
2021/05/20 11:00:41;;;;;;;3.08;1.23;;;18.40;60.40;;;;;;5051025;28;20037;-76
2021/05/20 11:03:12;;;;;;;3.85;2.38;;;18.70;56.70;;;;;;5052055;28;20041;-76
2021/05/20 11:05:41;;;;;;;3.95;1.95;;;18.50;58.20;;;;;;5051571;28;20466;-76
2021/05/20 11:08:29;;;;;;;3.08;1.50;;;18.50;59.10;;;;;;5051864;28;20029;-76
2021/05/20 11:11:01;;;;;;;3.50;1.55;;;18.20;60.80;;;;;;5051882;28;20378;-76
2021/05/20 11:13:40;;;;;;;;;;;17.80;60.80;;;;;;5051500;28;20048;-76
2021/05/20 11:16:20;;;;;;;3.33;1.85;;;17.90;60.80;;;;;;5052370;28;19916;-76
2021/05/20 11:18:49;;;;;;;2.22;1.00;;;17.90;59.90;;;;;;5059781;28;20029;-75
2021/05/20 11:21:17;;;;;;;1.98;1.10;;;17.80;59.70;;;;;;5051979;28;20029;-74
2021/05/20 11:23:45;;;;;;;3.53;0.82;;;17.90;59.20;;;;;;5051288;28;20049;-75
2021/05/20 11:26:23;;;;;;;2.10;1.17;;;18.00;58.40;;;;;;5051949;28;20033;-75
2021/05/20 11:28:55;;;;;;;2.60;0.70;;;18.10;58.50;;;;;;5060253;28;20409;-76
2021/05/20 11:31:28;;;;;;;0.60;0.50;;;18.10;57.30;;;;;;5060871;28;20492;-75
2021/05/20 11:34:24;;;;;;;1.50;0.75;;;18.20;54.40;;;;;;5055069;28;20033;-76
2021/05/20 11:36:53;;;;;;;3.67;1.00;;;18.30;56.20;;;;;;5050018;28;20397;-76
2021/05/20 11:39:22;;;;;;;2.88;1.13;;;18.50;55.20;;;;;;5051460;28;20032;-74
2021/05/20 11:41:53;;;;;;;1.35;0.82;;;18.70;54.50;;;;;;5061213;28;20044;-74
2021/05/20 11:44:28;;;;;;;3.80;1.83;;;18.70;54.60;;;;;;5057446;28;20513;-75
2021/05/20 11:46:55;;;;;;;2.38;1.48;;;18.70;55.00;;;;;;5061704;28;20029;-75
2021/05/20 11:49:22;;;;;;;3.50;1.90;;;18.60;54.70;;;;;;5062681;28;20044;-74
2021/05/20 11:51:58;;;;;;;2.50;1.50;;;18.20;56.60;;;;;;5066293;28;20063;-75
2021/05/20 11:54:32;;;;;;;3.05;1.75;;;17.70;57.80;;;;;;5064401;28;20029;-75
2021/05/20 11:57:07;;;;;;;2.70;1.33;;;17.70;58.70;;;;;;5061252;28;20040;-75
2021/05/20 11:59:37;;;;;;;3.17;1.65;;;17.80;56.20;;;;;;5067676;28;20497;-75
2021/05/20 12:02:26;;;;;;;2.70;1.50;;;17.90;57.30;;;;;;5061768;28;20029;-75
2021/05/20 12:05:00;;;;;;;2.13;1.00;;;17.80;57.90;;;;;;5062108;28;20049;-75
2021/05/20 12:07:31;;;;;;;2.13;0.80;;;17.30;58.20;;;;;;5062579;28;20028;-75
2021/05/20 12:10:18;;;;;;;1.48;0.70;;;17.20;58.40;;;;;;5045012;28;20373;-74
2021/05/20 12:12:55;;;;;;;1.63;0.85;;;17.10;56.90;;;;;;5060723;28;20033;-74
2021/05/20 12:15:26;;;;;;;1.88;0.77;;;17.70;57.40;;;;;;5056690;28;20493;-74
2021/05/20 12:17:58;;;;;;;3.33;0.82;;;18.30;55.70;;;;;;5067756;28;20021;-74
2021/05/20 12:20:29;;;;;;;2.42;1.08;;;19.10;53.50;;;;;;5036280;28;20040;-76
2021/05/20 12:23:00;;;;;;;2.13;0.70;;;19.30;54.40;;;;;;5054867;28;20048;-74
2021/05/20 12:25:28;;;;;;;1.65;0.70;;;19.60;54.40;;;;;;5053736;28;20037;-75
2021/05/20 12:27:57;;;;;;;4.00;0.88;;;19.60;54.70;;;;;;5037020;28;20486;-74
2021/05/20 12:30:38;;;;;;;;;;;19.40;53.30;;;;;;5054900;28;20036;-74
2021/05/20 12:33:13;;;;;;;2.40;0.50;;;19.30;53.70;;;;;;5063534;28;19917;-74
2021/05/20 12:35:46;;;;;;;1.15;0.70;;;19.40;54.40;;;;;;5053679;28;20410;-74
2021/05/20 12:38:18;;;;;;;1.02;0.60;;;19.60;54.00;;;;;;5067026;28;20604;-74
2021/05/20 12:40:59;;;;;;;0.95;0.60;;;19.20;53.10;;;;;;5063265;28;20043;-74
2021/05/20 12:43:31;;;;;;;0.90;0.52;;;19.00;54.50;;;;;;5065391;28;20052;-78
2021/05/20 12:46:05;;;;;;;1.55;0.90;;;19.40;54.30;;;;;;5054924;28;20052;-75
2021/05/20 12:48:39;;;;;;;1.83;0.60;;;19.30;53.00;;;;;;5058993;28;20025;-75
2021/05/20 12:51:08;;;;;;;1.10;0.57;;;19.30;52.40;;;;;;5072440;28;20049;-76
2021/05/20 12:53:52;;;;;;;1.42;0.55;;;19.20;53.10;;;;;;5057387;28;20511;-75
2021/05/20 12:56:39;;;;;;;1.90;0.52;;;18.80;53.20;;;;;;5063465;28;20024;-76
2021/05/20 12:59:11;;;;;;;1.27;0.50;;;18.70;53.60;;;;;;5058475;28;20029;-74
2021/05/20 13:01:53;;;;;;;3.60;1.23;;;19.00;52.70;;;;;;5054664;28;20041;-75
2021/05/20 13:04:26;;;;;;;2.58;0.60;;;19.40;51.30;;;;;;5064066;28;20041;-75
2021/05/20 13:07:06;;;;;;;0.68;0.43;;;19.50;52.60;;;;;;5062485;28;20379;-74
2021/05/20 13:09:42;;;;;;;1.88;0.47;;;19.80;50.60;;;;;;5063916;28;20049;-75